Decoded Metar for CYLD (CHAPLEAU in ON, CANADA) (IATA:YLD) | Meteo·Mobile Aviation Weather
aviador You're here:

CYLD Decoded Metar

CHAPLEAU in ON, CANADA
Report Time2018-12-17 15:00:00
UTC Time2018-12-17 15:46:31
Flight Rules mvfr MVFR
Wind320° at 11 Gusting to 18 kt
W.Decomp.*RWY 28: 7.2 kt HW 8.3 kt RCW
RWY 05: 1.7 kt HW 10.9 kt LCW
W.Rank320° ranks 10
Current wind is above 320° avg. (6.3)
Visibility9999 m
Phenomena:Light Snow
Clouds:Broken 021 Hf
Expected CloudBase > 2,000 ft AGL from Temp-Dew spread
Ceiling2,100 ft
Temp-8°C (ISA -20)
Dew Point-13°C (68% RH)
AAT-15.2°C
QNH1014 hPa
Density Alt-1,020 ft
Elevation1,467 ft
Report Wrong Elevation
Raw Report
CYLD 171500Z 32011G18KT 300V010 15SM -SN BKN021 M08/M13 A2994 RMK
SC7 SLP170=

Extra information for CYLD:More info

Metar Taf Metar & Taf Last 4 Metars F.Rules Stats Wind Profile Meteogram Temp Stats Airport Information Weather charts Add Link Nearby VenuesMetar ALERT Operation Metar Decoded Social comments